• Join FlightAware (Why Join?)
  • Login
  • US Flag 
08:53AM EDT


 

Airport Tracker/Info


-or-


 

Live Flight TrackerFlight Track Log ✈ N20EW ✈ 17-Apr-2013 ✈ KBLF - KPIE

Flight Track Log - Related Links

Times and Time Zones

All times are in EDT time to prevent confusion due to time zone crossing. See the N20EW flight status page for this flight to view local times or setup timezone preferences in your user account.

Time Position Orientation Groundspeed Altitude Reporting Facility
EDT Latitude Longitude Course Direction KTS MPH feet Rate Location/Type
04:13PM 37.2606 -81.1603 190° South 179 206 6,000  Level Indianapolis Center
04:14PM 37.2089 -81.1678 187° South 192 221 8,000 1,980 Climbing Indianapolis Center
04:15PM 37.1506 -81.1794 189° South 186 214 10,100 1,860 Climbing Indianapolis Center
04:16PM 37.0956 -81.1903 189° South 197 227 11,900 1,560 Climbing Indianapolis Center
04:16PM 37.0783 -81.1928 187° South 201 231 12,200 1,860 Climbing Atlanta Center
04:17PM 37.0203 -81.2053 190° South 201 231 14,300 1,620 Climbing Atlanta Center
04:18PM 36.8420 -81.2871 190° South  Level Estimated
04:18PM 36.9622 -81.2150 188° South 206 237 15,500  Level Atlanta Center
04:19PM 36.8997 -81.2250 187° South 216 249 16,700 1,200 Climbing Atlanta Center
04:20PM 36.8356 -81.2378 189° South 229 264 17,900 1,440 Climbing Atlanta Center
04:21PM 36.7814 -81.2475 188° South 229 264 19,600 1,560 Climbing Atlanta Center
04:22PM 36.7211 -81.2547 185° South 216 249 21,100 1,260 Climbing Atlanta Center
04:23PM 36.6631 -81.2672 190° South 216 249 22,200 1,080 Climbing Atlanta Center
04:24PM 36.6008 -81.2794 189° South 221 254 23,300 1,080 Climbing Atlanta Center
04:25PM 36.5383 -81.2894 187° South 226 260 24,400 1,200 Climbing Atlanta Center
04:26PM 36.4761 -81.3019 189° South 226 260 25,700 780 Climbing Atlanta Center
04:27PM 36.4200 -81.3142 190° South 226 260 26,000 120 Climbing Atlanta Center
04:28PM 36.3475 -81.3269 188° South 247 284 26,000  Level Atlanta Center
04:29PM 36.2725 -81.3397 188° South 275 316 26,000  Level Atlanta Center
04:30PM 36.1958 -81.3553 189° South 275 316 26,000  Level Atlanta Center
04:31PM 36.1189 -81.3706 189° South 275 316 26,000  Level Atlanta Center
04:32PM 36.0419 -81.3833 188° South 275 316 26,000  Level Atlanta Center
04:33PM 35.9653 -81.3989 189° South 275 316 26,000  Level Atlanta Center
04:34PM 35.8800 -81.4119 187° South 275 316 26,000  Level Atlanta Center
04:35PM 35.8031 -81.4244 188° South 275 316 26,000  Level Atlanta Center
04:36PM 35.7261 -81.4397 189° South 275 316 26,000  Level Atlanta Center
04:37PM 35.6494 -81.4550 189° South 275 316 26,000  Level Atlanta Center
04:38PM 35.5703 -81.4678 187° South 275 316 26,000  Level Atlanta Center
04:39PM 35.4914 -81.4803 187° South 286 329 26,000  Level Atlanta Center
04:40PM 35.4144 -81.4956 189° South 286 329 26,000  Level Atlanta Center
04:41PM 35.3353 -81.5031 184° South 291 335 26,000  Level Atlanta Center
04:42PM 35.2561 -81.5031 180° South 291 335 26,000  Level Atlanta Center
04:43PM 35.1747 -81.5056 181° South 291 335 26,000  Level Atlanta Center
04:44PM 35.0953 -81.5028 178° South 291 335 26,000  Level Atlanta Center
04:45PM 35.0142 -81.5078 183° South 296 341 26,000  Level Atlanta Center
04:46PM 34.9325 -81.5028 177° South 291 335 26,000  Level Atlanta Center
04:47PM 34.8492 -81.5053 181° South 291 335 26,000  Level Atlanta Center
04:48PM 34.7678 -81.5025 178° South 291 335 26,000  Level Atlanta Center
04:49PM 34.6947 -81.5022 180° South 291 335 26,000  Level Atlanta Center
04:51PM 34.5111 -81.5167 184° South 290 334 26,000  Level Jacksonville Center
04:52PM 34.4425 -81.5306 189° South 290 334 26,000  Level Jacksonville Center
04:53PM 34.3611 -81.5444 188° South 290 334 26,000  Level Jacksonville Center
04:54PM 34.2822 -81.5606 190° South 295 339 26,000  Level Jacksonville Center
04:55PM 34.2050 -81.5744 188° South 295 339 26,000  Level Jacksonville Center
04:56PM 34.1281 -81.5981 194° South 295 339 26,000  Level Jacksonville Center
04:57PM 34.0492 -81.6194 193° South 295 339 26,000  Level Jacksonville Center
04:58PM 33.9722 -81.6406 193° South 295 339 26,000  Level Jacksonville Center
04:59PM 33.8931 -81.6617 192° South 295 339 26,000  Level Jacksonville Center
05:00PM 33.8161 -81.6803 191° South 295 339 26,000  Level Jacksonville Center
05:01PM 33.7389 -81.7014 193° South 295 339 26,000  Level Jacksonville Center
05:02PM 33.6597 -81.7222 192° South 295 339 26,000  Level Jacksonville Center
05:03PM 33.5828 -81.7458 194° South 295 339 26,000  Level Jacksonville Center
05:04PM 33.5058 -81.7642 191° South 295 339 26,000  Level Jacksonville Center
05:05PM 33.4289 -81.7875 194° South 295 339 26,000  Level Jacksonville Center
05:06PM 33.3517 -81.8083 193° South 295 339 26,000  Level Jacksonville Center
05:07PM 33.2747 -81.8292 193° South 295 339 26,000  Level Jacksonville Center
05:08PM 33.1975 -81.8475 191° South 295 339 26,000  Level Jacksonville Center
05:09PM 33.1206 -81.8708 194° South 295 339 26,000  Level Jacksonville Center
05:10PM 33.0456 -81.8889 191° South 290 334 26,000  Level Jacksonville Center
05:11PM 32.9686 -81.9097 193° South 285 328 26,000  Level Jacksonville Center
05:12PM 32.8914 -81.9328 194° South 280 322 26,000  Level Jacksonville Center
05:13PM 32.8164 -81.9508 191° South 280 322 26,000  Level Jacksonville Center
05:14PM 32.7414 -81.9714 193° South 280 322 26,000  Level Jacksonville Center
05:15PM 32.6581 -81.9969 194° South 280 322 26,000  Level Jacksonville Center
05:16PM 32.5894 -82.0147 192° South 280 322 26,000  Level Jacksonville Center
05:17PM 32.5103 -82.0328 191° South 280 322 26,000  Level Jacksonville Center
05:18PM 32.4331 -82.0533 193° South 280 322 26,000  Level Jacksonville Center
05:19PM 32.3539 -82.0639 186° South 285 328 26,000  Level Jacksonville Center
05:20PM 32.2661 -82.0744 186° South 294 338 26,000  Level Jacksonville Center
05:21PM 32.1889 -82.0825 185° South 294 338 26,000  Level Jacksonville Center
05:22PM 32.1158 -82.0881 184° South 294 338 26,000  Level Jacksonville Center
05:23PM 32.0283 -82.1011 187° South 288 331 26,000  Level Jacksonville Center
05:24PM 31.9575 -82.1064 184° South 297 342 26,000  Level Jacksonville Center
05:25PM 31.8678 -82.1172 186° South 291 335 26,000  Level Jacksonville Center
05:26PM 31.7906 -82.1250 185° South 291 335 26,000  Level Jacksonville Center
05:27PM 31.7175 -82.1331 185° South 291 335 26,000  Level Jacksonville Center
05:28PM 31.6278 -82.1436 186° South 291 335 26,000  Level Jacksonville Center
05:29PM 31.5567 -82.1514 185° South 291 335 26,000  Level Jacksonville Center
05:30PM 31.4775 -82.1617 186° South 291 335 26,000  Level Jacksonville Center
05:31PM 31.3942 -82.1747 188° South 291 335 26,000  Level Jacksonville Center
05:32PM 31.3147 -82.1775 182° South 291 335 26,000  Level Jacksonville Center
05:33PM 31.2333 -82.1881 186° South 291 335 26,000  Level Jacksonville Center
05:34PM 31.1519 -82.1958 185° South 291 335 26,000  Level Jacksonville Center
05:35PM 31.0728 -82.2036 185° South 291 335 26,000  Level Jacksonville Center
05:36PM 30.9933 -82.2117 185° South 291 335 26,000  Level Jacksonville Center
05:37PM 30.9142 -82.2194 185° South 291 335 26,000  Level Jacksonville Center
05:38PM 30.8347 -82.2297 186° South 291 335 26,000  Level Jacksonville Center
05:39PM 30.7556 -82.2375 185° South 291 335 26,000  Level Jacksonville Center
05:40PM 30.6783 -82.2478 187° South 291 335 26,000  Level Jacksonville Center
05:41PM 30.5969 -82.2531 183° South 291 335 26,000  Level Jacksonville Center
05:42PM 30.5133 -82.2608 185° South 291 335 26,000  Level Jacksonville Center
05:43PM 30.4342 -82.2686 185° South 291 335 26,000 -600 Level Jacksonville Center
05:44PM 30.3528 -82.2789 186° South 296 341 24,900 -960 Descending Jacksonville Center
05:45PM 30.2692 -82.2864 184° South 301 346 24,100 -900 Descending Jacksonville Center
05:46PM 30.1858 -82.2942 185° South 307 353 23,200 -900 Descending Jacksonville Center
05:47PM 30.1003 -82.3044 186° South 313 360 22,300 -900 Descending Jacksonville Center
05:48PM 30.0231 -82.3144 186° South 313 360 21,500 -780 Descending Jacksonville Center
05:49PM 29.9375 -82.3222 185° South 313 360 20,800 -780 Descending Jacksonville Center
05:50PM 29.8519 -82.3322 186° South 313 360 20,000 -1,080 Descending Jacksonville Center
05:51PM 29.7558 -82.3400 184° South 313 360 18,700 -1,140 Descending Jacksonville Center
05:52PM 29.6683 -82.3500 186° South 318 366 17,800 -840 Descending Jacksonville Center
05:53PM 29.5806 -82.3578 184° South 318 366 17,100 -360 Descending Jacksonville Center
05:54PM 29.5011 -82.3414 170° South 303 349 17,100  Level Jacksonville Center
05:55PM 29.4219 -82.3253 170° South 298 343 17,100  Level Jacksonville Center
05:56PM 29.3425 -82.3064 168° South 298 343 17,100 -180 Level Jacksonville Center
05:57PM 29.2608 -82.2928 172° South 293 337 16,800 -840 Descending Jacksonville Center
05:58PM 29.1817 -82.2767 170° South 293 337 15,500 -1,320 Descending Jacksonville Center
05:59PM 29.0958 -82.2628 172° South 298 343 14,200 -1,320 Descending Jacksonville Center
06:00PM 29.0103 -82.2611 179° South 298 343 12,900 -1,260 Descending Jacksonville Center
06:01PM 28.9331 -82.2614 180° South 298 343 11,700 -900 Descending Jacksonville Center
06:02PM 28.8539 -82.2619 180° South 303 349 11,100 -240 Descending Jacksonville Center
06:04PM 28.7000 -82.2500 176° South 276 318 11,000 -120 Descending Tampa TRACON
06:05PM 28.6167 -82.2833 199° South 278 320 10,900 -600 Descending Tampa TRACON
06:06PM 28.5833 -82.3667 246° West 291 335 9,900 -960 Descending Tampa TRACON
06:07PM 28.5667 -82.4333 254° West 278 320 9,100 -960 Descending Tampa TRACON
06:08PM 28.5167 -82.5333 240° Southwest 277 319 7,800 -1,020 Descending Tampa TRACON
06:09PM 28.4667 -82.6000 230° Southwest 272 313 6,900 -1,020 Descending Tampa TRACON
06:10PM 28.4333 -82.6500 233° Southwest 270 311 6,000 -1,140 Descending Tampa TRACON
06:11PM 28.3500 -82.6667 190° South 255 293 4,900 -1,080 Descending Tampa TRACON
06:12PM 28.2833 -82.6833 192° South 242 278 3,900 -1,020 Descending Tampa TRACON
06:13PM 28.2167 -82.6833 180° South 240 276 2,900 -720 Descending Tampa TRACON
06:14PM 28.1500 -82.6833 180° South 236 272 2,500 -180 Descending Tampa TRACON
06:15PM 28.0833 -82.7000 192° South 238 274 2,600 -240 Climbing Tampa TRACON
06:16PM 28.0167 -82.7000 180° South 203 234 2,000 -660 Descending Tampa TRACON
06:17PM 27.9833 -82.7000 180° South 138 159 1,400 -780 Descending Tampa TRACON
06:18PM 27.9500 -82.7000 180° South 116 133 600 -840 Descending Tampa TRACON
06:20PM 27.9100 -82.6874 180° South  Level Estimated
06:27PM 27.9100 -82.6874 180° South  Level Estimated
06:28PM 27.9100 -82.6874 180° South  Level Estimated